sensor_id;sensor_type;location;lat;lon;timestamp;P1;durP1;ratioP1;P2;durP2;ratioP2
39524;SDS011;25203;50.754;6.978;2022-07-01T00:01:59;9.93;;;7.85;;
39524;SDS011;25203;50.754;6.978;2022-07-01T00:04:00;10.98;;;8.60;;
39524;SDS011;25203;50.754;6.978;2022-07-01T00:06:01;14.20;;;7.82;;
39524;SDS011;25203;50.754;6.978;2022-07-01T00:08:01;12.30;;;7.88;;
39524;SDS011;25203;50.754;6.978;2022-07-01T00:10:02;11.55;;;8.23;;
39524;SDS011;25203;50.754;6.978;2022-07-01T00:12:04;10.15;;;7.88;;
39524;SDS011;25203;50.754;6.978;2022-07-01T00:14:05;10.45;;;7.90;;
39524;SDS011;25203;50.754;6.978;2022-07-01T00:16:06;9.90;;;7.53;;
39524;SDS011;25203;50.754;6.978;2022-07-01T00:18:07;8.73;;;6.82;;
39524;SDS011;25203;50.754;6.978;2022-07-01T00:20:07;9.93;;;7.45;;
39524;SDS011;25203;50.754;6.978;2022-07-01T00:22:08;12.70;;;7.78;;
39524;SDS011;25203;50.754;6.978;2022-07-01T00:24:09;16.63;;;8.43;;
39524;SDS011;25203;50.754;6.978;2022-07-01T00:26:09;14.07;;;8.68;;
39524;SDS011;25203;50.754;6.978;2022-07-01T00:28:10;11.57;;;8.27;;
39524;SDS011;25203;50.754;6.978;2022-07-01T00:30:11;15.10;;;9.20;;
39524;SDS011;25203;50.754;6.978;2022-07-01T00:32:12;9.82;;;7.85;;
39524;SDS011;25203;50.754;6.978;2022-07-01T00:34:13;9.50;;;7.70;;
39524;SDS011;25203;50.754;6.978;2022-07-01T00:36:14;15.43;;;8.35;;
39524;SDS011;25203;50.754;6.978;2022-07-01T00:38:14;12.32;;;7.75;;
39524;SDS011;25203;50.754;6.978;2022-07-01T00:40:15;11.25;;;8.23;;
39524;SDS011;25203;50.754;6.978;2022-07-01T00:42:16;11.23;;;8.68;;
39524;SDS011;25203;50.754;6.978;2022-07-01T00:44:19;10.13;;;7.75;;
39524;SDS011;25203;50.754;6.978;2022-07-01T00:46:21;12.27;;;8.43;;
39524;SDS011;25203;50.754;6.978;2022-07-01T00:48:23;11.90;;;8.68;;
39524;SDS011;25203;50.754;6.978;2022-07-01T00:50:24;11.35;;;8.23;;
39524;SDS011;25203;50.754;6.978;2022-07-01T00:52:25;8.82;;;7.30;;
39524;SDS011;25203;50.754;6.978;2022-07-01T00:54:25;10.77;;;8.25;;
39524;SDS011;25203;50.754;6.978;2022-07-01T00:56:27;13.30;;;7.95;;
39524;SDS011;25203;50.754;6.978;2022-07-01T00:58:28;10.82;;;7.75;;
39524;SDS011;25203;50.754;6.978;2022-07-01T01:00:29;11.20;;;7.90;;
39524;SDS011;25203;50.754;6.978;2022-07-01T01:02:30;11.98;;;7.63;;
39524;SDS011;25203;50.754;6.978;2022-07-01T01:04:31;9.05;;;7.15;;
39524;SDS011;25203;50.754;6.978;2022-07-01T01:06:33;8.70;;;7.07;;
39524;SDS011;25203;50.754;6.978;2022-07-01T01:08:33;10.43;;;6.50;;
39524;SDS011;25203;50.754;6.978;2022-07-01T01:10:35;7.88;;;6.50;;
39524;SDS011;25203;50.754;6.978;2022-07-01T01:12:37;13.70;;;7.18;;
39524;SDS011;25203;50.754;6.978;2022-07-01T01:14:48;7.22;;;5.70;;
39524;SDS011;25203;50.754;6.978;2022-07-01T01:16:50;8.15;;;6.03;;
39524;SDS011;25203;50.754;6.978;2022-07-01T01:18:51;9.73;;;7.25;;
39524;SDS011;25203;50.754;6.978;2022-07-01T01:20:52;9.18;;;6.18;;
39524;SDS011;25203;50.754;6.978;2022-07-01T01:22:53;9.50;;;6.18;;
39524;SDS011;25203;50.754;6.978;2022-07-01T01:24:54;7.05;;;5.80;;
39524;SDS011;25203;50.754;6.978;2022-07-01T01:26:57;12.35;;;7.82;;
39524;SDS011;25203;50.754;6.978;2022-07-01T01:28:58;8.05;;;6.63;;
39524;SDS011;25203;50.754;6.978;2022-07-01T01:30:58;10.68;;;6.28;;
39524;SDS011;25203;50.754;6.978;2022-07-01T01:32:59;7.35;;;5.90;;
39524;SDS011;25203;50.754;6.978;2022-07-01T01:35:00;6.25;;;4.82;;
39524;SDS011;25203;50.754;6.978;2022-07-01T01:37:01;6.63;;;4.28;;
39524;SDS011;25203;50.754;6.978;2022-07-01T01:39:02;12.63;;;6.13;;
39524;SDS011;25203;50.754;6.978;2022-07-01T01:41:07;6.72;;;5.57;;
39524;SDS011;25203;50.754;6.978;2022-07-01T01:43:09;7.82;;;5.32;;
39524;SDS011;25203;50.754;6.978;2022-07-01T01:45:10;9.35;;;4.97;;
39524;SDS011;25203;50.754;6.978;2022-07-01T01:47:11;7.55;;;4.60;;
39524;SDS011;25203;50.754;6.978;2022-07-01T01:49:12;5.28;;;3.28;;
39524;SDS011;25203;50.754;6.978;2022-07-01T01:51:12;8.23;;;4.18;;
39524;SDS011;25203;50.754;6.978;2022-07-01T01:53:13;3.03;;;2.72;;
39524;SDS011;25203;50.754;6.978;2022-07-01T01:55:13;6.97;;;2.90;;
39524;SDS011;25203;50.754;6.978;2022-07-01T01:57:14;5.53;;;2.65;;
39524;SDS011;25203;50.754;6.978;2022-07-01T01:59:15;4.22;;;2.80;;
39524;SDS011;25203;50.754;6.978;2022-07-01T02:01:16;4.10;;;2.65;;
39524;SDS011;25203;50.754;6.978;2022-07-01T02:03:17;3.45;;;2.50;;
39524;SDS011;25203;50.754;6.978;2022-07-01T02:05:18;2.42;;;2.22;;
39524;SDS011;25203;50.754;6.978;2022-07-01T02:07:19;4.95;;;2.72;;
39524;SDS011;25203;50.754;6.978;2022-07-01T02:09:19;4.72;;;3.05;;
39524;SDS011;25203;50.754;6.978;2022-07-01T02:11:20;4.68;;;2.60;;
39524;SDS011;25203;50.754;6.978;2022-07-01T02:13:20;9.45;;;2.60;;
39524;SDS011;25203;50.754;6.978;2022-07-01T02:15:21;10.63;;;3.15;;
39524;SDS011;25203;50.754;6.978;2022-07-01T02:17:22;10.23;;;3.05;;
39524;SDS011;25203;50.754;6.978;2022-07-01T02:19:22;3.28;;;2.13;;
39524;SDS011;25203;50.754;6.978;2022-07-01T02:21:23;10.40;;;2.97;;
39524;SDS011;25203;50.754;6.978;2022-07-01T02:23:23;4.57;;;2.40;;
39524;SDS011;25203;50.754;6.978;2022-07-01T02:25:24;3.80;;;3.03;;
39524;SDS011;25203;50.754;6.978;2022-07-01T02:27:25;3.55;;;3.25;;
39524;SDS011;25203;50.754;6.978;2022-07-01T02:29:25;5.28;;;2.92;;
39524;SDS011;25203;50.754;6.978;2022-07-01T02:31:26;11.13;;;3.00;;
39524;SDS011;25203;50.754;6.978;2022-07-01T02:33:26;7.10;;;2.88;;
39524;SDS011;25203;50.754;6.978;2022-07-01T02:35:27;6.00;;;3.25;;
39524;SDS011;25203;50.754;6.978;2022-07-01T02:37:28;5.80;;;3.10;;
39524;SDS011;25203;50.754;6.978;2022-07-01T02:39:28;4.53;;;2.60;;
39524;SDS011;25203;50.754;6.978;2022-07-01T02:41:29;3.35;;;2.47;;
39524;SDS011;25203;50.754;6.978;2022-07-01T02:43:30;3.95;;;2.22;;
39524;SDS011;25203;50.754;6.978;2022-07-01T02:45:30;4.63;;;2.40;;
39524;SDS011;25203;50.754;6.978;2022-07-01T02:47:34;2.78;;;1.70;;
39524;SDS011;25203;50.754;6.978;2022-07-01T02:49:36;7.40;;;2.35;;
39524;SDS011;25203;50.754;6.978;2022-07-01T02:51:39;2.88;;;1.60;;
39524;SDS011;25203;50.754;6.978;2022-07-01T02:53:39;4.15;;;2.05;;
39524;SDS011;25203;50.754;6.978;2022-07-01T02:55:40;4.22;;;1.70;;
39524;SDS011;25203;50.754;6.978;2022-07-01T02:57:41;3.60;;;1.40;;
39524;SDS011;25203;50.754;6.978;2022-07-01T02:59:42;2.45;;;1.52;;
39524;SDS011;25203;50.754;6.978;2022-07-01T03:01:43;4.05;;;1.67;;
39524;SDS011;25203;50.754;6.978;2022-07-01T03:03:43;3.17;;;1.90;;
39524;SDS011;25203;50.754;6.978;2022-07-01T03:05:44;3.08;;;1.98;;
39524;SDS011;25203;50.754;6.978;2022-07-01T03:07:45;8.93;;;2.33;;
39524;SDS011;25203;50.754;6.978;2022-07-01T03:09:45;2.15;;;1.95;;
39524;SDS011;25203;50.754;6.978;2022-07-01T03:11:46;6.50;;;2.47;;
39524;SDS011;25203;50.754;6.978;2022-07-01T03:13:46;5.07;;;2.30;;
39524;SDS011;25203;50.754;6.978;2022-07-01T03:15:47;5.25;;;2.40;;
39524;SDS011;25203;50.754;6.978;2022-07-01T03:17:48;4.60;;;2.50;;
39524;SDS011;25203;50.754;6.978;2022-07-01T03:19:48;3.50;;;2.00;;
39524;SDS011;25203;50.754;6.978;2022-07-01T03:21:51;3.17;;;2.28;;
39524;SDS011;25203;50.754;6.978;2022-07-01T03:23:52;5.95;;;2.72;;
39524;SDS011;25203;50.754;6.978;2022-07-01T03:25:52;2.78;;;2.50;;
39524;SDS011;25203;50.754;6.978;2022-07-01T03:27:53;7.00;;;2.83;;
39524;SDS011;25203;50.754;6.978;2022-07-01T03:29:53;8.07;;;2.58;;
39524;SDS011;25203;50.754;6.978;2022-07-01T03:31:54;3.60;;;2.72;;
39524;SDS011;25203;50.754;6.978;2022-07-01T03:33:55;4.75;;;2.45;;
39524;SDS011;25203;50.754;6.978;2022-07-01T03:35:56;3.33;;;2.60;;
39524;SDS011;25203;50.754;6.978;2022-07-01T03:37:56;3.50;;;3.20;;
39524;SDS011;25203;50.754;6.978;2022-07-01T03:39:57;3.22;;;2.72;;
39524;SDS011;25203;50.754;6.978;2022-07-01T03:41:58;7.10;;;3.25;;
39524;SDS011;25203;50.754;6.978;2022-07-01T03:43:59;8.50;;;3.22;;
39524;SDS011;25203;50.754;6.978;2022-07-01T03:45:59;3.15;;;2.85;;
39524;SDS011;25203;50.754;6.978;2022-07-01T03:48:00;8.00;;;2.75;;
39524;SDS011;25203;50.754;6.978;2022-07-01T03:50:02;5.32;;;3.00;;
39524;SDS011;25203;50.754;6.978;2022-07-01T03:52:03;4.25;;;2.88;;
39524;SDS011;25203;50.754;6.978;2022-07-01T03:54:05;6.80;;;3.05;;
39524;SDS011;25203;50.754;6.978;2022-07-01T03:56:24;3.47;;;2.80;;
39524;SDS011;25203;50.754;6.978;2022-07-01T03:58:25;4.20;;;3.03;;
39524;SDS011;25203;50.754;6.978;2022-07-01T04:00:25;4.03;;;2.60;;
39524;SDS011;25203;50.754;6.978;2022-07-01T04:02:27;5.13;;;2.67;;
39524;SDS011;25203;50.754;6.978;2022-07-01T04:04:28;5.25;;;2.95;;
39524;SDS011;25203;50.754;6.978;2022-07-01T04:06:28;3.20;;;2.30;;
39524;SDS011;25203;50.754;6.978;2022-07-01T04:08:29;2.88;;;2.30;;
39524;SDS011;25203;50.754;6.978;2022-07-01T04:10:30;2.75;;;2.33;;
39524;SDS011;25203;50.754;6.978;2022-07-01T04:12:33;7.20;;;2.42;;
39524;SDS011;25203;50.754;6.978;2022-07-01T04:14:33;7.80;;;2.40;;
39524;SDS011;25203;50.754;6.978;2022-07-01T04:16:34;4.38;;;2.97;;
39524;SDS011;25203;50.754;6.978;2022-07-01T04:18:35;8.93;;;3.25;;
39524;SDS011;25203;50.754;6.978;2022-07-01T04:20:36;12.15;;;3.60;;
39524;SDS011;25203;50.754;6.978;2022-07-01T04:22:37;6.18;;;2.63;;
39524;SDS011;25203;50.754;6.978;2022-07-01T04:24:38;10.40;;;2.95;;
39524;SDS011;25203;50.754;6.978;2022-07-01T04:26:39;7.22;;;3.55;;
39524;SDS011;25203;50.754;6.978;2022-07-01T04:28:41;9.00;;;3.20;;
39524;SDS011;25203;50.754;6.978;2022-07-01T04:30:41;12.50;;;2.88;;
39524;SDS011;25203;50.754;6.978;2022-07-01T04:32:42;7.15;;;2.88;;
39524;SDS011;25203;50.754;6.978;2022-07-01T04:34:43;9.60;;;2.60;;
39524;SDS011;25203;50.754;6.978;2022-07-01T04:36:43;2.95;;;2.38;;
39524;SDS011;25203;50.754;6.978;2022-07-01T04:38:44;7.22;;;2.88;;
39524;SDS011;25203;50.754;6.978;2022-07-01T04:40:45;5.63;;;2.65;;
39524;SDS011;25203;50.754;6.978;2022-07-01T04:43:04;4.75;;;2.35;;
39524;SDS011;25203;50.754;6.978;2022-07-01T04:45:05;6.35;;;2.95;;
39524;SDS011;25203;50.754;6.978;2022-07-01T04:47:06;9.55;;;4.28;;
39524;SDS011;25203;50.754;6.978;2022-07-01T04:49:07;4.45;;;2.58;;
39524;SDS011;25203;50.754;6.978;2022-07-01T04:51:07;5.72;;;2.92;;
39524;SDS011;25203;50.754;6.978;2022-07-01T04:53:08;4.47;;;2.85;;
39524;SDS011;25203;50.754;6.978;2022-07-01T04:55:09;11.18;;;2.63;;
39524;SDS011;25203;50.754;6.978;2022-07-01T04:57:10;14.35;;;5.15;;
39524;SDS011;25203;50.754;6.978;2022-07-01T04:59:14;12.35;;;3.53;;
39524;SDS011;25203;50.754;6.978;2022-07-01T05:01:15;13.30;;;2.90;;
39524;SDS011;25203;50.754;6.978;2022-07-01T05:03:16;4.18;;;2.80;;
39524;SDS011;25203;50.754;6.978;2022-07-01T05:05:17;12.98;;;4.00;;
39524;SDS011;25203;50.754;6.978;2022-07-01T05:07:18;10.57;;;3.28;;
39524;SDS011;25203;50.754;6.978;2022-07-01T05:09:31;8.38;;;3.00;;
39524;SDS011;25203;50.754;6.978;2022-07-01T05:11:31;10.20;;;3.53;;
39524;SDS011;25203;50.754;6.978;2022-07-01T05:13:32;5.47;;;3.28;;
39524;SDS011;25203;50.754;6.978;2022-07-01T05:15:33;9.23;;;3.47;;
39524;SDS011;25203;50.754;6.978;2022-07-01T05:17:34;9.18;;;3.03;;
39524;SDS011;25203;50.754;6.978;2022-07-01T05:19:53;6.13;;;3.20;;
39524;SDS011;25203;50.754;6.978;2022-07-01T05:22:12;7.25;;;2.70;;
39524;SDS011;25203;50.754;6.978;2022-07-01T05:24:13;7.18;;;2.67;;
39524;SDS011;25203;50.754;6.978;2022-07-01T05:26:13;6.20;;;2.60;;
39524;SDS011;25203;50.754;6.978;2022-07-01T05:28:17;8.52;;;2.60;;
39524;SDS011;25203;50.754;6.978;2022-07-01T05:30:17;6.47;;;2.60;;
39524;SDS011;25203;50.754;6.978;2022-07-01T05:32:18;7.70;;;2.83;;
39524;SDS011;25203;50.754;6.978;2022-07-01T05:34:19;5.50;;;2.50;;
39524;SDS011;25203;50.754;6.978;2022-07-01T05:36:19;6.93;;;2.95;;
39524;SDS011;25203;50.754;6.978;2022-07-01T05:38:20;3.88;;;2.38;;
39524;SDS011;25203;50.754;6.978;2022-07-01T05:40:21;2.95;;;2.65;;
39524;SDS011;25203;50.754;6.978;2022-07-01T05:42:22;11.25;;;2.90;;
39524;SDS011;25203;50.754;6.978;2022-07-01T05:44:22;4.78;;;2.28;;
39524;SDS011;25203;50.754;6.978;2022-07-01T05:46:23;6.93;;;2.60;;
39524;SDS011;25203;50.754;6.978;2022-07-01T05:48:24;6.90;;;2.95;;
39524;SDS011;25203;50.754;6.978;2022-07-01T05:50:25;3.50;;;2.63;;
39524;SDS011;25203;50.754;6.978;2022-07-01T05:52:25;7.55;;;2.70;;
39524;SDS011;25203;50.754;6.978;2022-07-01T05:54:26;7.50;;;2.53;;
39524;SDS011;25203;50.754;6.978;2022-07-01T05:56:26;5.88;;;2.65;;
39524;SDS011;25203;50.754;6.978;2022-07-01T05:58:27;5.82;;;2.65;;
39524;SDS011;25203;50.754;6.978;2022-07-01T06:00:28;3.63;;;2.28;;
39524;SDS011;25203;50.754;6.978;2022-07-01T06:02:29;5.75;;;2.90;;
39524;SDS011;25203;50.754;6.978;2022-07-01T06:04:29;6.97;;;2.65;;
39524;SDS011;25203;50.754;6.978;2022-07-01T06:06:30;3.40;;;2.20;;
39524;SDS011;25203;50.754;6.978;2022-07-01T06:08:32;3.97;;;2.30;;
39524;SDS011;25203;50.754;6.978;2022-07-01T06:10:34;5.22;;;2.28;;
39524;SDS011;25203;50.754;6.978;2022-07-01T06:12:35;3.60;;;2.38;;
39524;SDS011;25203;50.754;6.978;2022-07-01T06:14:36;8.68;;;2.55;;
39524;SDS011;25203;50.754;6.978;2022-07-01T06:16:37;11.07;;;2.67;;
39524;SDS011;25203;50.754;6.978;2022-07-01T06:18:38;6.80;;;2.60;;
39524;SDS011;25203;50.754;6.978;2022-07-01T06:20:38;6.18;;;2.30;;
39524;SDS011;25203;50.754;6.978;2022-07-01T06:22:39;7.28;;;2.40;;
39524;SDS011;25203;50.754;6.978;2022-07-01T06:24:40;7.40;;;2.33;;
39524;SDS011;25203;50.754;6.978;2022-07-01T06:26:40;10.45;;;2.50;;
39524;SDS011;25203;50.754;6.978;2022-07-01T06:28:41;4.03;;;2.10;;
39524;SDS011;25203;50.754;6.978;2022-07-01T06:30:42;3.35;;;2.35;;
39524;SDS011;25203;50.754;6.978;2022-07-01T06:32:43;6.75;;;2.20;;
39524;SDS011;25203;50.754;6.978;2022-07-01T06:34:44;3.85;;;1.75;;
39524;SDS011;25203;50.754;6.978;2022-07-01T06:36:44;3.42;;;2.50;;
39524;SDS011;25203;50.754;6.978;2022-07-01T06:38:45;5.85;;;2.38;;
39524;SDS011;25203;50.754;6.978;2022-07-01T06:40:46;4.28;;;2.17;;
39524;SDS011;25203;50.754;6.978;2022-07-01T06:43:06;3.65;;;2.05;;
39524;SDS011;25203;50.754;6.978;2022-07-01T06:45:07;3.90;;;2.00;;
39524;SDS011;25203;50.754;6.978;2022-07-01T06:47:08;6.70;;;2.20;;
39524;SDS011;25203;50.754;6.978;2022-07-01T06:49:08;6.88;;;2.33;;
39524;SDS011;25203;50.754;6.978;2022-07-01T06:51:09;5.25;;;2.25;;
39524;SDS011;25203;50.754;6.978;2022-07-01T06:53:09;5.30;;;1.70;;
39524;SDS011;25203;50.754;6.978;2022-07-01T06:55:10;5.25;;;2.42;;
39524;SDS011;25203;50.754;6.978;2022-07-01T06:57:11;3.90;;;2.00;;
39524;SDS011;25203;50.754;6.978;2022-07-01T06:59:11;5.85;;;1.80;;
39524;SDS011;25203;50.754;6.978;2022-07-01T07:01:12;2.83;;;1.80;;
39524;SDS011;25203;50.754;6.978;2022-07-01T07:03:13;7.00;;;1.60;;
39524;SDS011;25203;50.754;6.978;2022-07-01T07:05:13;3.97;;;1.80;;
39524;SDS011;25203;50.754;6.978;2022-07-01T07:07:14;8.20;;;2.00;;
39524;SDS011;25203;50.754;6.978;2022-07-01T07:09:15;2.72;;;1.90;;
39524;SDS011;25203;50.754;6.978;2022-07-01T07:11:15;3.45;;;1.98;;
39524;SDS011;25203;50.754;6.978;2022-07-01T07:13:19;3.05;;;2.10;;
39524;SDS011;25203;50.754;6.978;2022-07-01T07:15:19;5.00;;;1.77;;
39524;SDS011;25203;50.754;6.978;2022-07-01T07:17:20;8.20;;;2.20;;
39524;SDS011;25203;50.754;6.978;2022-07-01T07:19:21;5.43;;;2.03;;
39524;SDS011;25203;50.754;6.978;2022-07-01T07:21:21;2.03;;;1.58;;
39524;SDS011;25203;50.754;6.978;2022-07-01T07:23:22;2.58;;;1.85;;
39524;SDS011;25203;50.754;6.978;2022-07-01T07:25:23;2.78;;;1.60;;
39524;SDS011;25203;50.754;6.978;2022-07-01T07:27:23;2.47;;;1.60;;
39524;SDS011;25203;50.754;6.978;2022-07-01T07:29:24;4.55;;;1.60;;
39524;SDS011;25203;50.754;6.978;2022-07-01T07:31:25;4.88;;;1.88;;
39524;SDS011;25203;50.754;6.978;2022-07-01T07:33:25;6.20;;;1.48;;
39524;SDS011;25203;50.754;6.978;2022-07-01T07:35:26;3.65;;;1.80;;
39524;SDS011;25203;50.754;6.978;2022-07-01T07:37:27;4.13;;;1.73;;
39524;SDS011;25203;50.754;6.978;2022-07-01T07:39:27;4.68;;;1.40;;
39524;SDS011;25203;50.754;6.978;2022-07-01T07:41:28;7.80;;;1.58;;
39524;SDS011;25203;50.754;6.978;2022-07-01T07:43:29;3.72;;;1.50;;
39524;SDS011;25203;50.754;6.978;2022-07-01T07:45:29;3.70;;;1.20;;
39524;SDS011;25203;50.754;6.978;2022-07-01T07:47:30;3.58;;;1.20;;
39524;SDS011;25203;50.754;6.978;2022-07-01T07:49:30;3.22;;;1.48;;
39524;SDS011;25203;50.754;6.978;2022-07-01T07:51:31;3.50;;;1.48;;
39524;SDS011;25203;50.754;6.978;2022-07-01T07:53:32;3.72;;;1.30;;
39524;SDS011;25203;50.754;6.978;2022-07-01T07:55:32;3.55;;;1.40;;
39524;SDS011;25203;50.754;6.978;2022-07-01T07:57:35;3.00;;;1.40;;
39524;SDS011;25203;50.754;6.978;2022-07-01T07:59:36;4.70;;;1.52;;
39524;SDS011;25203;50.754;6.978;2022-07-01T08:01:37;4.68;;;1.40;;
39524;SDS011;25203;50.754;6.978;2022-07-01T08:03:37;2.75;;;1.40;;
39524;SDS011;25203;50.754;6.978;2022-07-01T08:05:38;1.60;;;1.15;;
39524;SDS011;25203;50.754;6.978;2022-07-01T08:07:40;3.10;;;0.90;;
39524;SDS011;25203;50.754;6.978;2022-07-01T08:09:41;2.65;;;0.90;;
39524;SDS011;25203;50.754;6.978;2022-07-01T08:11:46;4.60;;;0.90;;
39524;SDS011;25203;50.754;6.978;2022-07-01T08:13:46;1.67;;;0.80;;
39524;SDS011;25203;50.754;6.978;2022-07-01T08:15:47;4.05;;;1.17;;
39524;SDS011;25203;50.754;6.978;2022-07-01T08:17:48;3.40;;;1.20;;
39524;SDS011;25203;50.754;6.978;2022-07-01T08:19:48;3.28;;;1.00;;
39524;SDS011;25203;50.754;6.978;2022-07-01T08:21:50;4.30;;;1.13;;
39524;SDS011;25203;50.754;6.978;2022-07-01T08:23:50;3.60;;;1.20;;
39524;SDS011;25203;50.754;6.978;2022-07-01T08:25:51;1.75;;;0.80;;
39524;SDS011;25203;50.754;6.978;2022-07-01T08:27:52;2.10;;;1.25;;
39524;SDS011;25203;50.754;6.978;2022-07-01T08:29:52;4.03;;;1.10;;
39524;SDS011;25203;50.754;6.978;2022-07-01T08:31:53;2.83;;;0.95;;
39524;SDS011;25203;50.754;6.978;2022-07-01T08:33:54;2.28;;;0.98;;
39524;SDS011;25203;50.754;6.978;2022-07-01T08:35:54;6.97;;;1.30;;
39524;SDS011;25203;50.754;6.978;2022-07-01T08:37:55;3.10;;;1.00;;
39524;SDS011;25203;50.754;6.978;2022-07-01T08:39:56;7.38;;;1.42;;
39524;SDS011;25203;50.754;6.978;2022-07-01T08:41:57;1.58;;;1.42;;
39524;SDS011;25203;50.754;6.978;2022-07-01T08:43:57;1.55;;;0.70;;
39524;SDS011;25203;50.754;6.978;2022-07-01T08:45:59;1.80;;;1.00;;
39524;SDS011;25203;50.754;6.978;2022-07-01T08:48:03;2.55;;;1.10;;
39524;SDS011;25203;50.754;6.978;2022-07-01T08:50:05;2.10;;;0.90;;
39524;SDS011;25203;50.754;6.978;2022-07-01T08:52:05;1.55;;;0.80;;
39524;SDS011;25203;50.754;6.978;2022-07-01T08:54:09;2.28;;;1.10;;
39524;SDS011;25203;50.754;6.978;2022-07-01T08:56:09;1.75;;;0.98;;
39524;SDS011;25203;50.754;6.978;2022-07-01T08:58:29;1.55;;;0.80;;
39524;SDS011;25203;50.754;6.978;2022-07-01T09:00:30;2.30;;;1.10;;
39524;SDS011;25203;50.754;6.978;2022-07-01T09:05:04;2.38;;;1.08;;
39524;SDS011;25203;50.754;6.978;2022-07-01T09:07:06;2.38;;;0.85;;
39524;SDS011;25203;50.754;6.978;2022-07-01T09:11:24;1.55;;;0.90;;
39524;SDS011;25203;50.754;6.978;2022-07-01T09:13:25;1.83;;;0.80;;
39524;SDS011;25203;50.754;6.978;2022-07-01T09:17:28;2.05;;;0.82;;
39524;SDS011;25203;50.754;6.978;2022-07-01T09:19:29;3.13;;;0.82;;
39524;SDS011;25203;50.754;6.978;2022-07-01T09:21:32;3.28;;;0.88;;
39524;SDS011;25203;50.754;6.978;2022-07-01T09:23:33;1.80;;;0.80;;
39524;SDS011;25203;50.754;6.978;2022-07-01T09:25:35;3.10;;;0.80;;
39524;SDS011;25203;50.754;6.978;2022-07-01T09:27:44;1.98;;;0.80;;
39524;SDS011;25203;50.754;6.978;2022-07-01T09:29:53;1.17;;;0.60;;
39524;SDS011;25203;50.754;6.978;2022-07-01T09:31:54;1.95;;;0.80;;
39524;SDS011;25203;50.754;6.978;2022-07-01T09:34:04;1.50;;;0.73;;
39524;SDS011;25203;50.754;6.978;2022-07-01T09:36:06;1.38;;;1.02;;
39524;SDS011;25203;50.754;6.978;2022-07-01T09:38:07;1.30;;;0.75;;
39524;SDS011;25203;50.754;6.978;2022-07-01T09:40:11;2.15;;;0.70;;
39524;SDS011;25203;50.754;6.978;2022-07-01T09:42:12;0.98;;;0.70;;
39524;SDS011;25203;50.754;6.978;2022-07-01T09:44:13;2.22;;;0.98;;
39524;SDS011;25203;50.754;6.978;2022-07-01T09:46:14;1.13;;;0.60;;
39524;SDS011;25203;50.754;6.978;2022-07-01T09:48:15;2.30;;;0.75;;
39524;SDS011;25203;50.754;6.978;2022-07-01T09:50:15;1.02;;;0.60;;
39524;SDS011;25203;50.754;6.978;2022-07-01T09:52:16;3.42;;;0.90;;
39524;SDS011;25203;50.754;6.978;2022-07-01T09:54:18;3.25;;;0.80;;
39524;SDS011;25203;50.754;6.978;2022-07-01T09:56:19;2.28;;;0.70;;
39524;SDS011;25203;50.754;6.978;2022-07-01T09:58:20;0.88;;;0.50;;
39524;SDS011;25203;50.754;6.978;2022-07-01T10:00:20;0.65;;;0.60;;
39524;SDS011;25203;50.754;6.978;2022-07-01T10:02:21;0.85;;;0.43;;
39524;SDS011;25203;50.754;6.978;2022-07-01T10:04:22;3.88;;;0.93;;
39524;SDS011;25203;50.754;6.978;2022-07-01T10:10:59;0.57;;;0.50;;
39524;SDS011;25203;50.754;6.978;2022-07-01T10:13:21;1.40;;;0.57;;
39524;SDS011;25203;50.754;6.978;2022-07-01T10:15:25;0.88;;;0.60;;
39524;SDS011;25203;50.754;6.978;2022-07-01T10:17:46;1.88;;;0.70;;
39524;SDS011;25203;50.754;6.978;2022-07-01T10:19:51;1.23;;;0.50;;
39524;SDS011;25203;50.754;6.978;2022-07-01T10:21:55;1.17;;;0.63;;
39524;SDS011;25203;50.754;6.978;2022-07-01T10:24:10;1.17;;;0.60;;
39524;SDS011;25203;50.754;6.978;2022-07-01T10:26:11;3.33;;;0.70;;
39524;SDS011;25203;50.754;6.978;2022-07-01T10:30:30;1.48;;;0.50;;
39524;SDS011;25203;50.754;6.978;2022-07-01T10:32:33;3.40;;;0.70;;
39524;SDS011;25203;50.754;6.978;2022-07-01T10:34:40;0.93;;;0.65;;
39524;SDS011;25203;50.754;6.978;2022-07-01T10:36:41;1.83;;;0.57;;
39524;SDS011;25203;50.754;6.978;2022-07-01T10:41:18;3.15;;;0.73;;
39524;SDS011;25203;50.754;6.978;2022-07-01T10:43:33;1.70;;;0.70;;
39524;SDS011;25203;50.754;6.978;2022-07-01T10:45:40;1.63;;;0.60;;
39524;SDS011;25203;50.754;6.978;2022-07-01T10:47:45;1.55;;;0.80;;
39524;SDS011;25203;50.754;6.978;2022-07-01T10:51:50;1.35;;;0.65;;
39524;SDS011;25203;50.754;6.978;2022-07-01T10:53:53;1.15;;;0.75;;
39524;SDS011;25203;50.754;6.978;2022-07-01T10:55:54;1.65;;;0.75;;
39524;SDS011;25203;50.754;6.978;2022-07-01T10:57:54;0.90;;;0.47;;
39524;SDS011;25203;50.754;6.978;2022-07-01T11:01:59;2.47;;;1.00;;
39524;SDS011;25203;50.754;6.978;2022-07-01T11:04:11;2.40;;;0.73;;
39524;SDS011;25203;50.754;6.978;2022-07-01T11:06:11;1.10;;;0.50;;
39524;SDS011;25203;50.754;6.978;2022-07-01T11:08:12;3.63;;;0.85;;
39524;SDS011;25203;50.754;6.978;2022-07-01T11:10:14;1.13;;;0.60;;
39524;SDS011;25203;50.754;6.978;2022-07-01T11:12:16;1.95;;;0.82;;
39524;SDS011;25203;50.754;6.978;2022-07-01T11:14:17;3.67;;;1.45;;
39524;SDS011;25203;50.754;6.978;2022-07-01T11:16:18;1.20;;;0.80;;
39524;SDS011;25203;50.754;6.978;2022-07-01T11:18:19;0.95;;;0.70;;
39524;SDS011;25203;50.754;6.978;2022-07-01T11:20:21;0.82;;;0.70;;
39524;SDS011;25203;50.754;6.978;2022-07-01T11:22:27;1.70;;;0.85;;
39524;SDS011;25203;50.754;6.978;2022-07-01T11:24:29;1.50;;;0.70;;
39524;SDS011;25203;50.754;6.978;2022-07-01T11:26:30;3.45;;;1.10;;
39524;SDS011;25203;50.754;6.978;2022-07-01T11:28:37;1.27;;;0.80;;
39524;SDS011;25203;50.754;6.978;2022-07-01T11:30:39;1.67;;;1.00;;
39524;SDS011;25203;50.754;6.978;2022-07-01T11:32:41;1.98;;;0.80;;
39524;SDS011;25203;50.754;6.978;2022-07-01T11:34:49;4.05;;;0.88;;
39524;SDS011;25203;50.754;6.978;2022-07-01T11:36:50;2.60;;;0.85;;
39524;SDS011;25203;50.754;6.978;2022-07-01T11:39:20;3.47;;;1.20;;
39524;SDS011;25203;50.754;6.978;2022-07-01T11:41:24;0.95;;;0.68;;
39524;SDS011;25203;50.754;6.978;2022-07-01T11:43:26;1.17;;;0.73;;
39524;SDS011;25203;50.754;6.978;2022-07-01T11:45:29;1.35;;;0.60;;
39524;SDS011;25203;50.754;6.978;2022-07-01T11:47:30;2.85;;;0.73;;
39524;SDS011;25203;50.754;6.978;2022-07-01T11:49:31;1.67;;;0.73;;
39524;SDS011;25203;50.754;6.978;2022-07-01T11:51:32;2.22;;;0.70;;
39524;SDS011;25203;50.754;6.978;2022-07-01T11:53:32;3.53;;;0.80;;
39524;SDS011;25203;50.754;6.978;2022-07-01T11:55:34;1.80;;;0.60;;
39524;SDS011;25203;50.754;6.978;2022-07-01T11:57:34;1.63;;;0.90;;
39524;SDS011;25203;50.754;6.978;2022-07-01T11:59:35;1.70;;;0.55;;
39524;SDS011;25203;50.754;6.978;2022-07-01T12:01:38;1.75;;;0.80;;
39524;SDS011;25203;50.754;6.978;2022-07-01T12:03:39;2.33;;;0.68;;
39524;SDS011;25203;50.754;6.978;2022-07-01T12:05:39;1.17;;;0.63;;
39524;SDS011;25203;50.754;6.978;2022-07-01T12:07:40;1.27;;;0.70;;
39524;SDS011;25203;50.754;6.978;2022-07-01T12:09:41;1.33;;;0.63;;
39524;SDS011;25203;50.754;6.978;2022-07-01T12:11:46;1.33;;;0.70;;
39524;SDS011;25203;50.754;6.978;2022-07-01T12:13:48;1.95;;;0.60;;
39524;SDS011;25203;50.754;6.978;2022-07-01T12:15:50;1.15;;;0.50;;
39524;SDS011;25203;50.754;6.978;2022-07-01T12:17:51;3.05;;;0.60;;
39524;SDS011;25203;50.754;6.978;2022-07-01T12:20:05;2.30;;;0.70;;
39524;SDS011;25203;50.754;6.978;2022-07-01T12:22:10;1.15;;;0.57;;
39524;SDS011;25203;50.754;6.978;2022-07-01T12:24:12;0.98;;;0.60;;
39524;SDS011;25203;50.754;6.978;2022-07-01T12:26:14;4.72;;;0.55;;
39524;SDS011;25203;50.754;6.978;2022-07-01T12:30:31;1.13;;;0.52;;
39524;SDS011;25203;50.754;6.978;2022-07-01T12:32:34;1.95;;;0.73;;
39524;SDS011;25203;50.754;6.978;2022-07-01T12:36:48;1.58;;;0.70;;
39524;SDS011;25203;50.754;6.978;2022-07-01T12:39:05;1.50;;;0.75;;